sensor_id;sensor_type;location;lat;lon;timestamp;P1;durP1;ratioP1;P2;durP2;ratioP2
69625;SDS011;56847;51.984;5.088;2022-10-13T04:58:57;24.95;;;13.43;;
69625;SDS011;56847;51.984;5.088;2022-10-13T05:01:25;27.77;;;13.90;;
69625;SDS011;56847;51.984;5.088;2022-10-13T05:03:53;24.52;;;15.20;;
69625;SDS011;56847;51.984;5.088;2022-10-13T05:06:24;31.57;;;14.30;;
69625;SDS011;56847;51.984;5.088;2022-10-13T05:08:54;26.70;;;14.27;;
69625;SDS011;56847;51.984;5.088;2022-10-13T05:11:21;25.73;;;15.00;;
69625;SDS011;56847;51.984;5.088;2022-10-13T05:13:49;36.97;;;13.45;;
69625;SDS011;56847;51.984;5.088;2022-10-13T05:16:17;28.35;;;15.07;;
69625;SDS011;56847;51.984;5.088;2022-10-13T05:18:45;28.20;;;14.80;;
69625;SDS011;56847;51.984;5.088;2022-10-13T05:21:18;31.48;;;14.32;;
69625;SDS011;56847;51.984;5.088;2022-10-13T05:23:47;32.47;;;15.63;;
69625;SDS011;56847;51.984;5.088;2022-10-13T05:26:15;33.10;;;14.25;;
69625;SDS011;56847;51.984;5.088;2022-10-13T05:28:43;27.73;;;14.10;;
69625;SDS011;56847;51.984;5.088;2022-10-13T05:31:15;31.53;;;14.60;;
69625;SDS011;56847;51.984;5.088;2022-10-13T05:33:44;24.75;;;14.02;;
69625;SDS011;56847;51.984;5.088;2022-10-13T05:36:20;32.15;;;15.90;;
69625;SDS011;56847;51.984;5.088;2022-10-13T05:38:53;33.08;;;14.93;;
69625;SDS011;56847;51.984;5.088;2022-10-13T05:41:22;23.40;;;14.90;;
69625;SDS011;56847;51.984;5.088;2022-10-13T05:43:52;33.90;;;14.73;;
69625;SDS011;56847;51.984;5.088;2022-10-13T05:46:22;27.80;;;13.45;;
69625;SDS011;56847;51.984;5.088;2022-10-13T05:48:50;34.65;;;15.85;;
69625;SDS011;56847;51.984;5.088;2022-10-13T05:51:23;34.97;;;14.82;;
69625;SDS011;56847;51.984;5.088;2022-10-13T05:54:15;31.75;;;14.95;;
69625;SDS011;56847;51.984;5.088;2022-10-13T05:56:56;40.53;;;15.30;;
69625;SDS011;56847;51.984;5.088;2022-10-13T05:59:30;30.92;;;15.30;;
69625;SDS011;56847;51.984;5.088;2022-10-13T06:02:00;34.20;;;15.48;;
69625;SDS011;56847;51.984;5.088;2022-10-13T06:04:29;26.20;;;14.40;;
69625;SDS011;56847;51.984;5.088;2022-10-13T06:07:01;30.02;;;15.35;;
69625;SDS011;56847;51.984;5.088;2022-10-13T06:09:30;29.97;;;14.47;;
69625;SDS011;56847;51.984;5.088;2022-10-13T06:12:04;32.55;;;15.43;;
69625;SDS011;56847;51.984;5.088;2022-10-13T06:14:31;36.60;;;16.23;;
69625;SDS011;56847;51.984;5.088;2022-10-13T06:17:01;32.20;;;15.15;;
69625;SDS011;56847;51.984;5.088;2022-10-13T06:19:28;30.92;;;15.93;;
69625;SDS011;56847;51.984;5.088;2022-10-13T06:21:55;39.00;;;15.07;;
69625;SDS011;56847;51.984;5.088;2022-10-13T06:24:28;37.20;;;13.95;;
69625;SDS011;56847;51.984;5.088;2022-10-13T06:26:55;41.03;;;16.17;;
69625;SDS011;56847;51.984;5.088;2022-10-13T06:29:23;30.33;;;15.60;;
69625;SDS011;56847;51.984;5.088;2022-10-13T06:31:52;32.67;;;16.80;;
69625;SDS011;56847;51.984;5.088;2022-10-13T06:34:19;37.17;;;16.53;;
69625;SDS011;56847;51.984;5.088;2022-10-13T06:36:46;34.20;;;16.15;;
69625;SDS011;56847;51.984;5.088;2022-10-13T06:39:12;34.95;;;17.55;;
69625;SDS011;56847;51.984;5.088;2022-10-13T06:41:39;31.67;;;17.15;;
69625;SDS011;56847;51.984;5.088;2022-10-13T06:44:06;33.05;;;16.33;;
69625;SDS011;56847;51.984;5.088;2022-10-13T06:46:33;42.67;;;16.03;;
69625;SDS011;56847;51.984;5.088;2022-10-13T06:49:00;38.30;;;17.85;;
69625;SDS011;56847;51.984;5.088;2022-10-13T06:51:27;32.40;;;17.70;;
69625;SDS011;56847;51.984;5.088;2022-10-13T06:53:55;36.45;;;16.02;;
69625;SDS011;56847;51.984;5.088;2022-10-13T06:56:24;30.10;;;16.05;;
69625;SDS011;56847;51.984;5.088;2022-10-13T06:58:50;28.17;;;16.07;;
69625;SDS011;56847;51.984;5.088;2022-10-13T07:01:18;42.33;;;18.13;;
69625;SDS011;56847;51.984;5.088;2022-10-13T07:03:48;35.67;;;18.25;;
69625;SDS011;56847;51.984;5.088;2022-10-13T07:06:19;32.88;;;17.70;;
69625;SDS011;56847;51.984;5.088;2022-10-13T07:08:48;37.60;;;17.92;;
69625;SDS011;56847;51.984;5.088;2022-10-13T07:11:16;35.80;;;17.23;;
69625;SDS011;56847;51.984;5.088;2022-10-13T07:13:49;38.53;;;18.08;;
69625;SDS011;56847;51.984;5.088;2022-10-13T07:16:16;42.03;;;19.17;;
69625;SDS011;56847;51.984;5.088;2022-10-13T07:18:45;34.13;;;18.35;;
69625;SDS011;56847;51.984;5.088;2022-10-13T07:21:12;34.03;;;18.80;;
69625;SDS011;56847;51.984;5.088;2022-10-13T07:23:39;30.90;;;19.17;;
69625;SDS011;56847;51.984;5.088;2022-10-13T07:26:07;27.58;;;16.92;;
69625;SDS011;56847;51.984;5.088;2022-10-13T07:28:39;39.83;;;19.05;;
69625;SDS011;56847;51.984;5.088;2022-10-13T07:31:08;42.58;;;18.83;;
69625;SDS011;56847;51.984;5.088;2022-10-13T07:33:41;37.95;;;18.92;;
69625;SDS011;56847;51.984;5.088;2022-10-13T07:36:09;36.00;;;18.13;;
69625;SDS011;56847;51.984;5.088;2022-10-13T07:38:37;26.48;;;17.02;;
69625;SDS011;56847;51.984;5.088;2022-10-13T07:41:05;37.88;;;20.70;;
69625;SDS011;56847;51.984;5.088;2022-10-13T07:43:33;30.63;;;18.02;;
69625;SDS011;56847;51.984;5.088;2022-10-13T07:46:03;36.00;;;19.90;;
69625;SDS011;56847;51.984;5.088;2022-10-13T07:48:31;35.40;;;17.83;;
69625;SDS011;56847;51.984;5.088;2022-10-13T07:51:06;32.97;;;18.88;;
69625;SDS011;56847;51.984;5.088;2022-10-13T07:53:35;33.92;;;20.38;;
69625;SDS011;56847;51.984;5.088;2022-10-13T07:56:03;31.40;;;18.63;;
69625;SDS011;56847;51.984;5.088;2022-10-13T07:58:32;36.95;;;20.48;;
69625;SDS011;56847;51.984;5.088;2022-10-13T08:01:02;32.17;;;18.93;;
69625;SDS011;56847;51.984;5.088;2022-10-13T08:03:34;35.60;;;19.75;;
69625;SDS011;56847;51.984;5.088;2022-10-13T08:06:03;36.35;;;18.08;;
69625;SDS011;56847;51.984;5.088;2022-10-13T08:08:30;34.15;;;18.70;;
69625;SDS011;56847;51.984;5.088;2022-10-13T08:11:06;34.30;;;20.13;;
69625;SDS011;56847;51.984;5.088;2022-10-13T08:13:37;27.93;;;17.23;;
69625;SDS011;56847;51.984;5.088;2022-10-13T08:16:11;30.02;;;17.17;;
69625;SDS011;56847;51.984;5.088;2022-10-13T08:18:38;33.17;;;18.40;;
69625;SDS011;56847;51.984;5.088;2022-10-13T08:21:08;29.38;;;16.75;;
69625;SDS011;56847;51.984;5.088;2022-10-13T08:23:57;28.00;;;17.08;;
69625;SDS011;56847;51.984;5.088;2022-10-13T08:26:25;30.57;;;17.13;;
69625;SDS011;56847;51.984;5.088;2022-10-13T08:28:53;29.58;;;16.83;;
69625;SDS011;56847;51.984;5.088;2022-10-13T08:31:40;30.33;;;16.67;;
69625;SDS011;56847;51.984;5.088;2022-10-13T08:34:08;29.50;;;14.48;;
69625;SDS011;56847;51.984;5.088;2022-10-13T08:36:36;25.95;;;16.20;;
69625;SDS011;56847;51.984;5.088;2022-10-13T08:39:06;26.73;;;14.47;;
69625;SDS011;56847;51.984;5.088;2022-10-13T08:41:38;31.58;;;14.02;;
69625;SDS011;56847;51.984;5.088;2022-10-13T08:44:11;23.70;;;13.32;;
69625;SDS011;56847;51.984;5.088;2022-10-13T08:47:21;24.73;;;13.77;;
69625;SDS011;56847;51.984;5.088;2022-10-13T08:50:04;27.83;;;15.18;;
69625;SDS011;56847;51.984;5.088;2022-10-13T08:52:45;22.63;;;13.17;;
69625;SDS011;56847;51.984;5.088;2022-10-13T08:55:29;26.52;;;13.88;;
69625;SDS011;56847;51.984;5.088;2022-10-13T08:58:20;33.58;;;14.90;;
69625;SDS011;56847;51.984;5.088;2022-10-13T09:01:11;23.90;;;13.45;;
69625;SDS011;56847;51.984;5.088;2022-10-13T09:08:57;33.85;;;14.32;;
69625;SDS011;56847;51.984;5.088;2022-10-13T09:11:39;24.40;;;13.75;;
69625;SDS011;56847;51.984;5.088;2022-10-13T09:14:13;22.90;;;12.93;;
69625;SDS011;56847;51.984;5.088;2022-10-13T09:16:50;27.05;;;13.45;;
69625;SDS011;56847;51.984;5.088;2022-10-13T09:19:19;31.60;;;13.17;;
69625;SDS011;56847;51.984;5.088;2022-10-13T09:21:54;29.10;;;12.98;;
69625;SDS011;56847;51.984;5.088;2022-10-13T09:24:23;28.08;;;13.32;;
69625;SDS011;56847;51.984;5.088;2022-10-13T09:27:03;29.85;;;12.32;;
69625;SDS011;56847;51.984;5.088;2022-10-13T09:29:37;25.73;;;14.23;;
69625;SDS011;56847;51.984;5.088;2022-10-13T09:32:12;28.07;;;13.70;;
69625;SDS011;56847;51.984;5.088;2022-10-13T09:34:45;29.90;;;14.43;;
69625;SDS011;56847;51.984;5.088;2022-10-13T09:37:20;33.45;;;14.02;;
69625;SDS011;56847;51.984;5.088;2022-10-13T09:40:11;38.42;;;13.95;;
69625;SDS011;56847;51.984;5.088;2022-10-13T09:42:41;22.63;;;12.75;;
69625;SDS011;56847;51.984;5.088;2022-10-13T09:45:17;22.70;;;12.60;;
69625;SDS011;56847;51.984;5.088;2022-10-13T09:47:54;23.58;;;13.43;;
69625;SDS011;56847;51.984;5.088;2022-10-13T09:50:31;27.75;;;13.25;;
69625;SDS011;56847;51.984;5.088;2022-10-13T09:56:25;34.67;;;13.88;;
69625;SDS011;56847;51.984;5.088;2022-10-13T09:58:49;27.07;;;13.67;;
69625;SDS011;56847;51.984;5.088;2022-10-13T10:01:27;29.77;;;14.38;;
69625;SDS011;56847;51.984;5.088;2022-10-13T10:04:01;29.27;;;14.02;;
69625;SDS011;56847;51.984;5.088;2022-10-13T10:06:32;23.95;;;14.05;;
69625;SDS011;56847;51.984;5.088;2022-10-13T10:12:00;23.87;;;12.43;;
69625;SDS011;56847;51.984;5.088;2022-10-13T10:14:31;26.27;;;13.30;;
69625;SDS011;56847;51.984;5.088;2022-10-13T10:20:03;27.90;;;14.27;;
69625;SDS011;56847;51.984;5.088;2022-10-13T10:26:01;28.00;;;14.10;;
69625;SDS011;56847;51.984;5.088;2022-10-13T10:34:36;30.88;;;15.55;;
69625;SDS011;56847;51.984;5.088;2022-10-13T10:39:46;28.53;;;14.33;;
69625;SDS011;56847;51.984;5.088;2022-10-13T10:45:38;32.92;;;13.93;;
69625;SDS011;56847;51.984;5.088;2022-10-13T10:51:12;33.47;;;16.30;;
69625;SDS011;56847;51.984;5.088;2022-10-13T10:53:56;31.87;;;14.83;;
69625;SDS011;56847;51.984;5.088;2022-10-13T10:56:52;29.13;;;14.80;;
69625;SDS011;56847;51.984;5.088;2022-10-13T10:59:52;28.48;;;14.55;;
69625;SDS011;56847;51.984;5.088;2022-10-13T11:05:08;28.70;;;14.45;;
69625;SDS011;56847;51.984;5.088;2022-10-13T11:07:53;26.30;;;14.87;;
69625;SDS011;56847;51.984;5.088;2022-10-13T11:10:21;27.98;;;13.85;;
69625;SDS011;56847;51.984;5.088;2022-10-13T11:15:26;29.00;;;14.00;;
69625;SDS011;56847;51.984;5.088;2022-10-13T11:17:56;29.02;;;14.00;;
69625;SDS011;56847;51.984;5.088;2022-10-13T11:25:46;31.65;;;14.38;;
69625;SDS011;56847;51.984;5.088;2022-10-13T11:35:56;27.33;;;13.10;;
69625;SDS011;56847;51.984;5.088;2022-10-13T11:38:28;25.08;;;13.40;;
69625;SDS011;56847;51.984;5.088;2022-10-13T11:41:12;23.23;;;12.35;;
69625;SDS011;56847;51.984;5.088;2022-10-13T11:43:53;36.13;;;13.25;;
69625;SDS011;56847;51.984;5.088;2022-10-13T11:49:41;25.95;;;13.07;;
69625;SDS011;56847;51.984;5.088;2022-10-13T11:52:51;29.08;;;13.35;;
69625;SDS011;56847;51.984;5.088;2022-10-13T11:55:37;30.52;;;13.52;;
69625;SDS011;56847;51.984;5.088;2022-10-13T11:58:23;26.75;;;13.65;;
69625;SDS011;56847;51.984;5.088;2022-10-13T12:01:13;29.33;;;12.97;;
69625;SDS011;56847;51.984;5.088;2022-10-13T12:03:41;23.20;;;12.13;;
69625;SDS011;56847;51.984;5.088;2022-10-13T12:06:29;24.67;;;13.55;;
69625;SDS011;56847;51.984;5.088;2022-10-13T12:09:23;21.23;;;12.52;;
69625;SDS011;56847;51.984;5.088;2022-10-13T12:11:57;32.15;;;14.20;;
69625;SDS011;56847;51.984;5.088;2022-10-13T12:14:43;27.03;;;12.27;;
69625;SDS011;56847;51.984;5.088;2022-10-13T12:17:32;25.92;;;12.40;;
69625;SDS011;56847;51.984;5.088;2022-10-13T12:20:19;25.52;;;13.13;;
69625;SDS011;56847;51.984;5.088;2022-10-13T12:22:50;26.13;;;12.25;;
69625;SDS011;56847;51.984;5.088;2022-10-13T12:25:23;23.30;;;12.85;;
69625;SDS011;56847;51.984;5.088;2022-10-13T12:27:56;26.87;;;13.13;;
69625;SDS011;56847;51.984;5.088;2022-10-13T12:30:27;26.40;;;13.80;;
69625;SDS011;56847;51.984;5.088;2022-10-13T12:32:55;28.70;;;14.02;;
69625;SDS011;56847;51.984;5.088;2022-10-13T12:35:24;25.15;;;13.60;;
69625;SDS011;56847;51.984;5.088;2022-10-13T12:37:53;24.38;;;14.15;;
69625;SDS011;56847;51.984;5.088;2022-10-13T12:40:22;26.87;;;14.27;;
69625;SDS011;56847;51.984;5.088;2022-10-13T12:42:52;29.98;;;13.90;;
69625;SDS011;56847;51.984;5.088;2022-10-13T12:45:22;34.13;;;15.07;;
69625;SDS011;56847;51.984;5.088;2022-10-13T12:47:52;21.60;;;13.45;;
69625;SDS011;56847;51.984;5.088;2022-10-13T12:52:54;27.07;;;13.23;;
69625;SDS011;56847;51.984;5.088;2022-10-13T12:55:34;28.75;;;14.98;;
69625;SDS011;56847;51.984;5.088;2022-10-13T12:58:21;29.05;;;15.20;;
69625;SDS011;56847;51.984;5.088;2022-10-13T13:01:20;29.80;;;14.52;;
69625;SDS011;56847;51.984;5.088;2022-10-13T13:03:59;29.15;;;15.55;;
69625;SDS011;56847;51.984;5.088;2022-10-13T13:06:50;28.03;;;15.60;;
69625;SDS011;56847;51.984;5.088;2022-10-13T13:12:12;32.72;;;15.65;;
69625;SDS011;56847;51.984;5.088;2022-10-13T13:14:49;23.02;;;14.65;;
69625;SDS011;56847;51.984;5.088;2022-10-13T13:17:21;25.75;;;15.52;;
69625;SDS011;56847;51.984;5.088;2022-10-13T13:20:23;27.53;;;14.53;;
69625;SDS011;56847;51.984;5.088;2022-10-13T13:22:55;20.67;;;13.18;;
69625;SDS011;56847;51.984;5.088;2022-10-13T13:25:22;24.27;;;14.82;;
69625;SDS011;56847;51.984;5.088;2022-10-13T13:27:49;28.23;;;14.57;;
69625;SDS011;56847;51.984;5.088;2022-10-13T13:30:18;25.85;;;15.90;;
69625;SDS011;56847;51.984;5.088;2022-10-13T13:32:46;23.20;;;13.40;;
69625;SDS011;56847;51.984;5.088;2022-10-13T13:35:13;26.42;;;14.60;;
69625;SDS011;56847;51.984;5.088;2022-10-13T13:37:41;25.60;;;15.77;;
69625;SDS011;56847;51.984;5.088;2022-10-13T13:40:15;22.83;;;14.63;;
69625;SDS011;56847;51.984;5.088;2022-10-13T13:42:44;26.15;;;14.52;;
69625;SDS011;56847;51.984;5.088;2022-10-13T13:45:12;29.90;;;15.03;;
69625;SDS011;56847;51.984;5.088;2022-10-13T13:47:39;23.92;;;14.55;;
69625;SDS011;56847;51.984;5.088;2022-10-13T13:50:12;26.23;;;15.13;;
69625;SDS011;56847;51.984;5.088;2022-10-13T13:52:54;28.83;;;13.73;;
69625;SDS011;56847;51.984;5.088;2022-10-13T13:55:21;31.75;;;14.65;;
69625;SDS011;56847;51.984;5.088;2022-10-13T13:57:52;28.43;;;14.40;;
69625;SDS011;56847;51.984;5.088;2022-10-13T14:00:19;25.45;;;13.73;;
69625;SDS011;56847;51.984;5.088;2022-10-13T14:02:53;28.20;;;15.10;;
69625;SDS011;56847;51.984;5.088;2022-10-13T14:05:21;28.83;;;15.18;;
69625;SDS011;56847;51.984;5.088;2022-10-13T14:07:51;27.73;;;14.80;;
69625;SDS011;56847;51.984;5.088;2022-10-13T14:10:19;27.53;;;13.67;;
69625;SDS011;56847;51.984;5.088;2022-10-13T14:12:46;27.25;;;13.77;;
69625;SDS011;56847;51.984;5.088;2022-10-13T14:15:12;31.63;;;16.42;;
69625;SDS011;56847;51.984;5.088;2022-10-13T14:17:39;27.25;;;14.95;;
69625;SDS011;56847;51.984;5.088;2022-10-13T14:20:07;25.48;;;15.93;;
69625;SDS011;56847;51.984;5.088;2022-10-13T14:22:36;22.97;;;14.70;;
69625;SDS011;56847;51.984;5.088;2022-10-13T14:25:04;26.08;;;13.63;;
69625;SDS011;56847;51.984;5.088;2022-10-13T14:27:32;37.78;;;14.95;;
69625;SDS011;56847;51.984;5.088;2022-10-13T14:30:00;24.88;;;14.77;;
69625;SDS011;56847;51.984;5.088;2022-10-13T14:32:27;24.25;;;15.25;;
69625;SDS011;56847;51.984;5.088;2022-10-13T14:34:55;26.97;;;14.93;;
69625;SDS011;56847;51.984;5.088;2022-10-13T14:37:22;20.17;;;13.85;;
69625;SDS011;56847;51.984;5.088;2022-10-13T14:39:54;24.27;;;16.05;;
69625;SDS011;56847;51.984;5.088;2022-10-13T14:42:21;28.48;;;15.27;;
69625;SDS011;56847;51.984;5.088;2022-10-13T14:44:48;30.45;;;16.55;;
69625;SDS011;56847;51.984;5.088;2022-10-13T14:47:15;32.00;;;15.77;;
69625;SDS011;56847;51.984;5.088;2022-10-13T14:49:42;23.20;;;14.98;;
69625;SDS011;56847;51.984;5.088;2022-10-13T14:52:09;29.85;;;18.80;;
69625;SDS011;56847;51.984;5.088;2022-10-13T14:54:36;24.88;;;16.02;;
69625;SDS011;56847;51.984;5.088;2022-10-13T14:57:10;28.60;;;17.85;;
69625;SDS011;56847;51.984;5.088;2022-10-13T14:59:41;28.97;;;15.13;;
69625;SDS011;56847;51.984;5.088;2022-10-13T15:02:12;30.35;;;18.95;;
69625;SDS011;56847;51.984;5.088;2022-10-13T15:04:49;27.77;;;17.88;;
69625;SDS011;56847;51.984;5.088;2022-10-13T15:07:17;30.60;;;16.40;;
69625;SDS011;56847;51.984;5.088;2022-10-13T15:09:44;29.92;;;15.68;;
69625;SDS011;56847;51.984;5.088;2022-10-13T15:12:18;24.23;;;15.50;;
69625;SDS011;56847;51.984;5.088;2022-10-13T15:14:45;29.52;;;15.27;;
69625;SDS011;56847;51.984;5.088;2022-10-13T15:17:12;33.03;;;16.17;;
69625;SDS011;56847;51.984;5.088;2022-10-13T15:19:39;29.67;;;14.88;;
69625;SDS011;56847;51.984;5.088;2022-10-13T15:22:07;22.45;;;15.48;;
69625;SDS011;56847;51.984;5.088;2022-10-13T15:24:34;24.30;;;15.60;;
69625;SDS011;56847;51.984;5.088;2022-10-13T15:27:01;25.30;;;14.80;;
69625;SDS011;56847;51.984;5.088;2022-10-13T15:29:28;25.08;;;14.25;;
69625;SDS011;56847;51.984;5.088;2022-10-13T15:32:09;27.23;;;15.07;;
69625;SDS011;56847;51.984;5.088;2022-10-13T15:34:38;22.15;;;15.27;;
69625;SDS011;56847;51.984;5.088;2022-10-13T15:37:05;22.60;;;14.73;;
69625;SDS011;56847;51.984;5.088;2022-10-13T15:39:32;25.33;;;15.07;;
69625;SDS011;56847;51.984;5.088;2022-10-13T15:41:59;22.77;;;15.45;;
69625;SDS011;56847;51.984;5.088;2022-10-13T15:44:27;27.52;;;14.98;;
69625;SDS011;56847;51.984;5.088;2022-10-13T15:46:58;24.00;;;16.10;;
69625;SDS011;56847;51.984;5.088;2022-10-13T15:49:34;22.77;;;13.07;;
69625;SDS011;56847;51.984;5.088;2022-10-13T15:52:04;22.35;;;13.27;;
69625;SDS011;56847;51.984;5.088;2022-10-13T15:54:31;21.38;;;13.32;;
69625;SDS011;56847;51.984;5.088;2022-10-13T15:56:58;19.35;;;12.65;;
69625;SDS011;56847;51.984;5.088;2022-10-13T15:59:25;18.63;;;12.90;;
69625;SDS011;56847;51.984;5.088;2022-10-13T16:01:52;21.27;;;12.70;;
69625;SDS011;56847;51.984;5.088;2022-10-13T16:04:19;23.55;;;13.88;;
69625;SDS011;56847;51.984;5.088;2022-10-13T16:06:46;19.15;;;13.85;;
69625;SDS011;56847;51.984;5.088;2022-10-13T16:09:16;20.25;;;12.57;;
69625;SDS011;56847;51.984;5.088;2022-10-13T16:11:42;21.00;;;13.60;;
69625;SDS011;56847;51.984;5.088;2022-10-13T16:14:12;23.67;;;13.40;;
69625;SDS011;56847;51.984;5.088;2022-10-13T16:16:39;21.67;;;12.80;;
69625;SDS011;56847;51.984;5.088;2022-10-13T16:19:12;22.08;;;13.93;;
69625;SDS011;56847;51.984;5.088;2022-10-13T16:21:39;16.70;;;12.73;;
69625;SDS011;56847;51.984;5.088;2022-10-13T16:24:06;18.95;;;13.18;;
69625;SDS011;56847;51.984;5.088;2022-10-13T16:26:33;14.67;;;12.70;;
69625;SDS011;56847;51.984;5.088;2022-10-13T16:29:00;20.85;;;13.20;;
69625;SDS011;56847;51.984;5.088;2022-10-13T16:31:27;15.15;;;12.43;;
69625;SDS011;56847;51.984;5.088;2022-10-13T16:33:54;22.20;;;12.52;;
69625;SDS011;56847;51.984;5.088;2022-10-13T16:36:21;17.90;;;12.35;;
69625;SDS011;56847;51.984;5.088;2022-10-13T16:38:51;17.33;;;12.77;;
69625;SDS011;56847;51.984;5.088;2022-10-13T16:41:22;18.20;;;13.40;;
69625;SDS011;56847;51.984;5.088;2022-10-13T16:43:49;18.92;;;13.50;;
69625;SDS011;56847;51.984;5.088;2022-10-13T16:46:17;17.92;;;12.80;;
69625;SDS011;56847;51.984;5.088;2022-10-13T16:48:46;15.40;;;11.90;;
69625;SDS011;56847;51.984;5.088;2022-10-13T16:51:14;16.00;;;12.20;;
69625;SDS011;56847;51.984;5.088;2022-10-13T16:53:46;13.75;;;11.10;;
69625;SDS011;56847;51.984;5.088;2022-10-13T16:56:14;14.13;;;11.32;;
69625;SDS011;56847;51.984;5.088;2022-10-13T17:01:22;17.50;;;10.55;;
69625;SDS011;56847;51.984;5.088;2022-10-13T17:03:51;9.87;;;8.40;;
69625;SDS011;56847;51.984;5.088;2022-10-13T17:06:20;9.80;;;8.15;;
69625;SDS011;56847;51.984;5.088;2022-10-13T17:08:58;13.15;;;8.43;;
69625;SDS011;56847;51.984;5.088;2022-10-13T17:11:29;13.73;;;8.63;;
69625;SDS011;56847;51.984;5.088;2022-10-13T17:13:57;10.07;;;8.20;;
69625;SDS011;56847;51.984;5.088;2022-10-13T17:16:30;10.07;;;6.43;;
69625;SDS011;56847;51.984;5.088;2022-10-13T17:19:01;10.27;;;6.78;;
69625;SDS011;56847;51.984;5.088;2022-10-13T17:21:34;8.00;;;6.72;;
69625;SDS011;56847;51.984;5.088;2022-10-13T17:24:03;6.03;;;5.28;;
69625;SDS011;56847;51.984;5.088;2022-10-13T17:26:31;8.80;;;5.97;;
69625;SDS011;56847;51.984;5.088;2022-10-13T17:29:01;7.50;;;5.53;;
69625;SDS011;56847;51.984;5.088;2022-10-13T17:31:28;8.98;;;6.45;;
69625;SDS011;56847;51.984;5.088;2022-10-13T17:33:55;8.20;;;6.18;;
69625;SDS011;56847;51.984;5.088;2022-10-13T17:36:23;5.75;;;5.15;;
69625;SDS011;56847;51.984;5.088;2022-10-13T17:38:55;7.05;;;5.55;;
69625;SDS011;56847;51.984;5.088;2022-10-13T17:41:27;8.47;;;5.37;;
69625;SDS011;56847;51.984;5.088;2022-10-13T17:43:54;8.27;;;6.03;;
69625;SDS011;56847;51.984;5.088;2022-10-13T17:46:22;9.77;;;6.97;;
69625;SDS011;56847;51.984;5.088;2022-10-13T17:49:08;6.93;;;6.22;;
69625;SDS011;56847;51.984;5.088;2022-10-13T17:51:37;12.50;;;7.18;;
69625;SDS011;56847;51.984;5.088;2022-10-13T17:54:08;6.03;;;5.47;;
69625;SDS011;56847;51.984;5.088;2022-10-13T17:56:42;6.35;;;5.43;;
69625;SDS011;56847;51.984;5.088;2022-10-13T17:59:16;10.10;;;6.95;;
69625;SDS011;56847;51.984;5.088;2022-10-13T18:01:44;12.77;;;8.05;;
69625;SDS011;56847;51.984;5.088;2022-10-13T18:04:18;13.00;;;9.27;;
69625;SDS011;56847;51.984;5.088;2022-10-13T18:06:56;11.20;;;9.00;;
69625;SDS011;56847;51.984;5.088;2022-10-13T18:09:23;12.73;;;9.07;;
69625;SDS011;56847;51.984;5.088;2022-10-13T18:11:59;15.90;;;9.73;;
69625;SDS011;56847;51.984;5.088;2022-10-13T18:14:26;11.15;;;9.48;;
69625;SDS011;56847;51.984;5.088;2022-10-13T18:16:56;10.35;;;8.77;;
69625;SDS011;56847;51.984;5.088;2022-10-13T18:19:27;10.57;;;8.63;;
69625;SDS011;56847;51.984;5.088;2022-10-13T18:21:54;11.20;;;9.02;;
69625;SDS011;56847;51.984;5.088;2022-10-13T18:24:21;13.32;;;9.95;;
69625;SDS011;56847;51.984;5.088;2022-10-13T18:26:51;16.23;;;12.38;;
69625;SDS011;56847;51.984;5.088;2022-10-13T18:29:18;19.17;;;13.27;;
69625;SDS011;56847;51.984;5.088;2022-10-13T18:31:47;14.17;;;10.63;;
69625;SDS011;56847;51.984;5.088;2022-10-13T18:34:15;13.45;;;9.82;;
69625;SDS011;56847;51.984;5.088;2022-10-13T18:36:46;13.90;;;10.82;;
69625;SDS011;56847;51.984;5.088;2022-10-13T18:39:24;13.85;;;10.40;;
69625;SDS011;56847;51.984;5.088;2022-10-13T18:41:55;11.70;;;9.57;;
69625;SDS011;56847;51.984;5.088;2022-10-13T18:44:32;11.87;;;8.33;;
69625;SDS011;56847;51.984;5.088;2022-10-13T18:47:02;13.23;;;10.52;;
69625;SDS011;56847;51.984;5.088;2022-10-13T18:49:31;16.42;;;10.32;;
69625;SDS011;56847;51.984;5.088;2022-10-13T18:51:59;13.70;;;11.55;;
69625;SDS011;56847;51.984;5.088;2022-10-13T18:54:27;16.33;;;12.48;;
69625;SDS011;56847;51.984;5.088;2022-10-13T18:57:03;14.50;;;11.90;;
69625;SDS011;56847;51.984;5.088;2022-10-13T18:59:30;17.77;;;13.85;;
69625;SDS011;56847;51.984;5.088;2022-10-13T19:01:58;20.80;;;15.82;;
69625;SDS011;56847;51.984;5.088;2022-10-13T19:04:25;23.63;;;16.52;;
69625;SDS011;56847;51.984;5.088;2022-10-13T19:06:52;29.15;;;17.90;;
69625;SDS011;56847;51.984;5.088;2022-10-13T19:09:20;22.97;;;15.60;;
69625;SDS011;56847;51.984;5.088;2022-10-13T19:11:47;23.35;;;16.17;;
69625;SDS011;56847;51.984;5.088;2022-10-13T19:14:16;22.90;;;17.52;;
69625;SDS011;56847;51.984;5.088;2022-10-13T19:16:43;32.03;;;17.50;;
69625;SDS011;56847;51.984;5.088;2022-10-13T19:19:11;26.52;;;18.75;;
69625;SDS011;56847;51.984;5.088;2022-10-13T19:21:38;24.83;;;18.13;;
69625;SDS011;56847;51.984;5.088;2022-10-13T19:24:07;23.15;;;17.77;;
69625;SDS011;56847;51.984;5.088;2022-10-13T19:26:34;28.77;;;18.70;;
69625;SDS011;56847;51.984;5.088;2022-10-13T19:29:10;27.30;;;19.63;;
69625;SDS011;56847;51.984;5.088;2022-10-13T19:31:39;26.33;;;19.08;;
69625;SDS011;56847;51.984;5.088;2022-10-13T19:34:07;29.00;;;20.30;;
69625;SDS011;56847;51.984;5.088;2022-10-13T19:36:40;28.88;;;20.13;;
69625;SDS011;56847;51.984;5.088;2022-10-13T19:39:13;32.45;;;21.05;;
69625;SDS011;56847;51.984;5.088;2022-10-13T19:41:46;29.20;;;20.92;;
69625;SDS011;56847;51.984;5.088;2022-10-13T19:44:14;29.55;;;21.38;;
69625;SDS011;56847;51.984;5.088;2022-10-13T19:46:44;31.77;;;22.20;;
69625;SDS011;56847;51.984;5.088;2022-10-13T19:49:14;32.00;;;21.42;;
69625;SDS011;56847;51.984;5.088;2022-10-13T19:51:43;32.38;;;22.85;;
69625;SDS011;56847;51.984;5.088;2022-10-13T19:54:11;32.30;;;21.40;;
69625;SDS011;56847;51.984;5.088;2022-10-13T19:56:42;29.90;;;21.42;;
69625;SDS011;56847;51.984;5.088;2022-10-13T19:59:14;30.03;;;21.33;;
69625;SDS011;56847;51.984;5.088;2022-10-13T20:01:42;32.17;;;21.77;;
69625;SDS011;56847;51.984;5.088;2022-10-13T20:04:13;32.92;;;22.50;;
69625;SDS011;56847;51.984;5.088;2022-10-13T20:06:44;35.75;;;23.00;;
69625;SDS011;56847;51.984;5.088;2022-10-13T20:09:13;35.85;;;24.00;;
69625;SDS011;56847;51.984;5.088;2022-10-13T20:11:44;34.73;;;23.73;;
69625;SDS011;56847;51.984;5.088;2022-10-13T20:14:13;35.25;;;23.40;;
69625;SDS011;56847;51.984;5.088;2022-10-13T20:16:41;35.83;;;23.17;;
69625;SDS011;56847;51.984;5.088;2022-10-13T20:19:08;38.63;;;24.23;;
69625;SDS011;56847;51.984;5.088;2022-10-13T20:21:37;40.45;;;25.50;;
69625;SDS011;56847;51.984;5.088;2022-10-13T20:24:05;40.30;;;26.57;;
69625;SDS011;56847;51.984;5.088;2022-10-13T20:26:32;37.78;;;25.25;;
69625;SDS011;56847;51.984;5.088;2022-10-13T20:28:59;42.22;;;25.83;;
69625;SDS011;56847;51.984;5.088;2022-10-13T20:31:26;38.80;;;25.77;;
69625;SDS011;56847;51.984;5.088;2022-10-13T20:33:54;42.30;;;26.40;;
69625;SDS011;56847;51.984;5.088;2022-10-13T20:36:24;42.07;;;25.13;;
69625;SDS011;56847;51.984;5.088;2022-10-13T20:38:52;41.17;;;25.40;;
69625;SDS011;56847;51.984;5.088;2022-10-13T20:41:23;42.05;;;25.70;;
69625;SDS011;56847;51.984;5.088;2022-10-13T20:43:56;45.53;;;26.00;;
69625;SDS011;56847;51.984;5.088;2022-10-13T20:46:30;43.05;;;26.27;;
69625;SDS011;56847;51.984;5.088;2022-10-13T20:48:58;50.13;;;28.77;;